createdAt,value
2018-09-14T00:01:22.805Z,57.37
2018-09-14T00:03:50.368Z,50.97
2018-09-14T00:06:17.961Z,51.50
2018-09-14T00:08:45.520Z,55.00
2018-09-14T00:11:13.078Z,58.67
2018-09-14T00:13:41.091Z,51.73
2018-09-14T00:16:08.659Z,52.13
2018-09-14T00:18:36.218Z,52.57
2018-09-14T00:21:03.814Z,56.05
2018-09-14T00:23:31.380Z,56.45
2018-09-14T00:25:59.708Z,51.90
2018-09-14T00:28:27.360Z,51.63
2018-09-14T00:30:54.926Z,55.77
2018-09-14T00:33:22.806Z,54.53
2018-09-14T00:35:50.424Z,50.40
2018-09-14T00:38:17.993Z,51.43
2018-09-14T00:40:45.566Z,54.77
2018-09-14T00:43:13.195Z,51.23
2018-09-14T00:45:40.750Z,53.07
2018-09-14T00:48:08.284Z,51.33
2018-09-14T00:50:35.954Z,55.77
2018-09-14T00:53:03.484Z,51.93
2018-09-14T00:55:31.041Z,55.87
2018-09-14T00:57:59.548Z,53.37
2018-09-14T01:00:27.109Z,54.13
2018-09-14T01:02:54.970Z,53.83
2018-09-14T01:05:23.056Z,53.20
2018-09-14T01:07:50.621Z,53.77
2018-09-14T01:10:18.179Z,55.00
2018-09-14T01:12:45.779Z,55.37
2018-09-14T01:15:13.349Z,56.13
2018-09-14T01:17:40.912Z,56.13
2018-09-14T01:20:08.546Z,59.40
2018-09-14T01:22:36.073Z,54.40
2018-09-14T01:25:03.636Z,56.40
2018-09-14T01:27:31.257Z,58.57
2018-09-14T01:29:58.819Z,55.93
2018-09-14T01:32:26.381Z,61.73
2018-09-14T01:34:53.983Z,57.73
2018-09-14T01:37:21.554Z,54.50
2018-09-14T01:39:49.123Z,57.03
2018-09-14T01:42:16.716Z,54.70
2018-09-14T01:44:44.279Z,61.88
2018-09-14T01:47:12.610Z,53.43
2018-09-14T01:49:40.232Z,54.97
2018-09-14T01:52:07.789Z,53.27
2018-09-14T01:54:35.348Z,57.10
2018-09-14T01:57:02.983Z,55.77
2018-09-14T01:59:30.556Z,55.67
2018-09-14T02:01:58.884Z,54.53
2018-09-14T02:04:26.480Z,61.90
2018-09-14T02:06:54.063Z,50.23
2018-09-14T02:09:22.396Z,65.25
2018-09-14T02:11:50.445Z,59.47
2018-09-14T02:14:18.003Z,61.97
2018-09-14T02:16:45.568Z,59.83
2018-09-14T02:19:13.166Z,57.53
2018-09-14T02:21:40.726Z,59.80
2018-09-14T02:24:08.283Z,61.67
2018-09-14T02:26:35.876Z,65.40
2018-09-14T02:29:04.213Z,56.27
2018-09-14T02:31:31.766Z,54.70
2018-09-14T02:33:59.383Z,52.90
2018-09-14T02:36:27.708Z,53.27
2018-09-14T02:38:55.267Z,57.97
2018-09-14T02:41:22.873Z,53.37
2018-09-14T02:43:50.428Z,52.13
2018-09-14T02:46:17.995Z,52.93
2018-09-14T02:48:45.592Z,49.83
2018-09-14T02:51:13.154Z,51.67
2018-09-14T02:53:40.718Z,51.27
2018-09-14T02:56:08.719Z,56.80
2018-09-14T02:58:36.317Z,55.73
2018-09-14T03:01:03.898Z,51.50
2018-09-14T03:03:31.498Z,56.83
2018-09-14T03:05:59.056Z,57.30
2018-09-14T03:08:26.633Z,53.83
2018-09-14T03:10:54.209Z,56.77
2018-09-14T03:13:21.761Z,57.40
2018-09-14T03:15:49.316Z,56.60
2018-09-14T03:18:16.938Z,58.23
2018-09-14T03:20:44.507Z,62.22
2018-09-14T03:23:12.067Z,56.43
2018-09-14T03:25:39.661Z,53.73
2018-09-14T03:28:07.219Z,52.07
2018-09-14T03:30:34.792Z,53.37
2018-09-14T03:33:02.387Z,54.60
2018-09-14T03:35:29.948Z,56.60
2018-09-14T03:37:58.291Z,55.07
2018-09-14T03:40:25.896Z,53.80
2018-09-14T03:42:54.236Z,52.87
2018-09-14T03:45:21.786Z,56.23
2018-09-14T03:47:49.378Z,53.10
2018-09-14T03:50:16.945Z,53.87
2018-09-14T03:52:45.270Z,49.63
2018-09-14T03:55:12.883Z,49.07
2018-09-14T03:57:40.427Z,50.60
2018-09-14T04:00:07.986Z,49.63
2018-09-14T04:02:36.191Z,50.13
2018-09-14T04:05:03.753Z,53.97
2018-09-14T04:07:32.078Z,53.23
2018-09-14T04:09:59.672Z,52.77
2018-09-14T04:12:27.231Z,55.10
2018-09-14T04:14:54.797Z,53.77
2018-09-14T04:17:22.431Z,55.50
2018-09-14T04:19:49.990Z,59.30
2018-09-14T04:22:17.569Z,57.03
2018-09-14T04:24:45.631Z,55.30
2018-09-14T04:27:13.193Z,61.93
2018-09-14T04:29:40.767Z,58.97
2018-09-14T04:32:08.361Z,63.53
2018-09-14T04:34:36.695Z,63.47
2018-09-14T04:37:04.273Z,59.70
2018-09-14T04:39:31.871Z,57.90
2018-09-14T04:42:02.072Z,55.90
2018-09-14T04:44:29.630Z,57.43
2018-09-14T04:46:57.258Z,54.40
2018-09-14T04:49:24.826Z,57.70
2018-09-14T04:51:52.551Z,55.23
2018-09-14T04:54:20.146Z,52.93
2018-09-14T04:56:47.701Z,57.38
2018-09-14T04:59:15.272Z,53.43
2018-09-14T05:01:43.548Z,48.93
2018-09-14T05:04:11.111Z,55.63
2018-09-14T05:06:38.670Z,48.60
2018-09-14T05:09:06.660Z,52.17
2018-09-14T05:11:34.226Z,52.77
2018-09-14T05:14:01.845Z,55.58
2018-09-14T05:16:29.431Z,53.10
2018-09-14T05:18:56.994Z,53.58
2018-09-14T05:21:24.557Z,51.97
2018-09-14T05:23:53.089Z,47.43
2018-09-14T05:26:20.597Z,49.83
2018-09-14T05:28:48.169Z,44.93
2018-09-14T05:31:16.120Z,49.33
2018-09-14T05:33:43.701Z,49.93
2018-09-14T05:36:11.266Z,43.07
2018-09-14T05:38:38.913Z,42.67
2018-09-14T05:41:06.469Z,40.77
2018-09-14T05:43:34.029Z,41.40
2018-09-14T05:46:01.677Z,40.80
2018-09-14T05:48:29.235Z,33.77
2018-09-14T05:50:56.796Z,38.97
2018-09-14T05:53:24.409Z,37.50
2018-09-14T05:55:51.971Z,38.53
2018-09-14T05:58:22.468Z,42.50
2018-09-14T06:00:50.087Z,41.37
2018-09-14T06:03:18.410Z,36.00
2018-09-14T06:05:45.971Z,39.93
2018-09-14T06:08:14.154Z,40.90
2018-09-14T06:10:41.715Z,38.70
2018-09-14T06:13:09.278Z,41.60
2018-09-14T06:15:37.647Z,36.10
2018-09-14T06:18:05.211Z,41.60
2018-09-14T06:20:32.778Z,41.40
2018-09-14T06:23:00.440Z,42.07
2018-09-14T06:25:28.720Z,40.97
2018-09-14T06:27:56.280Z,36.47
2018-09-14T06:30:23.939Z,38.10
2018-09-14T06:32:52.519Z,37.07
2018-09-14T06:35:20.081Z,40.43
2018-09-14T06:37:48.555Z,37.73
2018-09-14T06:40:16.123Z,40.83
2018-09-14T06:42:43.685Z,36.27
2018-09-14T06:45:11.610Z,40.03
2018-09-14T06:47:39.423Z,33.37
2018-09-14T06:50:06.990Z,37.23
2018-09-14T06:52:35.051Z,36.63
2018-09-14T06:55:02.630Z,38.10
2018-09-14T06:57:30.183Z,36.83
2018-09-14T06:59:58.408Z,35.43
2018-09-14T07:02:25.920Z,35.77
2018-09-14T07:04:53.484Z,37.30
2018-09-14T07:07:21.448Z,38.13
2018-09-14T07:09:49.008Z,37.40
2018-09-14T07:12:16.567Z,32.27
2018-09-14T07:14:44.218Z,31.90
2018-09-14T07:17:11.793Z,33.00
2018-09-14T07:19:39.355Z,31.37
2018-09-14T07:22:08.019Z,30.33
2018-09-14T07:24:35.580Z,31.03
2018-09-14T07:27:03.068Z,35.83
2018-09-14T07:29:30.661Z,33.20
2018-09-14T07:31:59.332Z,35.88
2018-09-14T07:34:26.922Z,32.13
2018-09-14T07:36:55.249Z,30.20
2018-09-14T07:39:22.826Z,32.43
2018-09-14T07:41:50.782Z,29.47
2018-09-14T07:44:18.337Z,33.20
2018-09-14T07:46:46.210Z,33.23
2018-09-14T07:49:13.805Z,32.50
2018-09-14T07:51:41.638Z,34.07
2018-09-14T07:54:10.226Z,33.40
2018-09-14T07:56:37.791Z,32.73
2018-09-14T07:59:05.348Z,34.00
2018-09-14T08:01:33.732Z,33.67
2018-09-14T08:04:01.292Z,29.73
2018-09-14T08:06:28.850Z,31.30
2018-09-14T08:08:56.461Z,31.97
2018-09-14T08:11:24.806Z,35.13
2018-09-14T08:13:52.382Z,32.23
2018-09-14T08:16:20.529Z,33.07
2018-09-14T08:18:48.097Z,37.43
2018-09-14T08:21:15.755Z,37.33
2018-09-14T08:23:43.312Z,38.57
2018-09-14T08:26:11.389Z,32.33
2018-09-14T08:28:38.964Z,34.77
2018-09-14T08:31:07.266Z,35.57
2018-09-14T08:33:34.830Z,36.20
2018-09-14T08:36:03.162Z,37.57
2018-09-14T08:38:32.061Z,35.63
2018-09-14T08:40:59.629Z,37.77
2018-09-14T08:43:27.196Z,37.88
2018-09-14T08:45:54.830Z,39.08
2018-09-14T08:48:22.406Z,38.35
2018-09-14T08:50:49.965Z,34.53
2018-09-14T08:53:18.139Z,34.87
2018-09-14T08:55:45.695Z,34.73
2018-09-14T08:58:13.293Z,34.43
2018-09-14T09:00:40.884Z,35.40
2018-09-14T09:03:08.413Z,34.03
2018-09-14T09:05:36.026Z,39.72
2018-09-14T09:08:03.583Z,39.50
2018-09-14T09:10:31.144Z,42.20
2018-09-14T09:12:58.775Z,36.37
2018-09-14T09:15:27.101Z,36.13
2018-09-14T09:17:55.082Z,42.70
2018-09-14T09:20:23.150Z,37.53
2018-09-14T09:22:50.711Z,35.93
2018-09-14T09:25:18.280Z,37.67
2018-09-14T09:27:46.350Z,35.07
2018-09-14T09:30:13.915Z,37.30
2018-09-14T09:32:41.473Z,35.57
2018-09-14T09:35:09.141Z,30.23
2018-09-14T09:37:36.701Z,35.30
2018-09-14T09:40:04.268Z,32.60
2018-09-14T09:42:31.877Z,27.00
2018-09-14T09:44:59.453Z,25.30
2018-09-14T09:47:27.013Z,28.03
2018-09-14T09:49:54.638Z,31.20
2018-09-14T09:52:22.193Z,25.70
2018-09-14T09:54:49.759Z,28.47
2018-09-14T09:57:17.402Z,26.07
2018-09-14T09:59:44.972Z,23.33
2018-09-14T10:02:12.531Z,20.10
2018-09-14T10:04:40.114Z,15.00
2018-09-14T10:07:07.689Z,18.60
2018-09-14T10:09:36.531Z,15.40
2018-09-14T10:12:04.085Z,13.20
2018-09-14T10:14:32.055Z,15.03
2018-09-14T10:16:59.637Z,14.43
2018-09-14T10:19:27.197Z,14.30
2018-09-14T10:21:54.812Z,18.50
2018-09-14T10:24:22.605Z,18.17
2018-09-14T10:26:50.463Z,16.13
2018-09-14T10:29:18.008Z,16.50
2018-09-14T10:31:45.570Z,15.27
2018-09-14T10:34:13.124Z,15.53
2018-09-14T10:36:40.783Z,13.20
2018-09-14T10:39:08.341Z,13.93
2018-09-14T10:41:35.893Z,13.27
2018-09-14T10:44:03.528Z,11.30
2018-09-14T10:46:31.086Z,13.03
2018-09-14T10:48:58.690Z,15.55
2018-09-14T10:51:26.265Z,17.70
2018-09-14T10:53:53.831Z,18.23
2018-09-14T10:56:21.396Z,16.10
2018-09-14T10:58:49.042Z,16.37
2018-09-14T11:01:16.593Z,15.50
2018-09-14T11:03:44.931Z,15.50
2018-09-14T11:06:12.884Z,14.50
2018-09-14T11:08:40.449Z,13.80
2018-09-14T11:11:08.012Z,12.47
2018-09-14T11:13:36.299Z,10.53
2018-09-14T11:16:04.144Z,12.63
2018-09-14T11:18:31.753Z,13.33
2018-09-14T11:20:59.301Z,14.30
2018-09-14T11:23:26.858Z,13.10
2018-09-14T11:25:54.644Z,12.27
2018-09-14T11:28:23.852Z,13.43
2018-09-14T11:30:52.195Z,12.50
2018-09-14T11:33:19.756Z,15.37
2018-09-14T11:35:47.341Z,12.40
2018-09-14T11:38:14.963Z,13.10
2018-09-14T11:40:42.505Z,13.17
2018-09-14T11:43:10.070Z,12.20
2018-09-14T11:45:37.631Z,11.77
2018-09-14T11:48:05.245Z,16.80
2018-09-14T11:50:32.800Z,13.90
2018-09-14T11:53:00.359Z,10.93
2018-09-14T11:55:28.660Z,10.27
2018-09-14T11:57:56.984Z,10.00
2018-09-14T12:00:24.545Z,13.33
2018-09-14T12:02:52.622Z,11.17
2018-09-14T12:05:20.173Z,9.30
2018-09-14T12:07:47.733Z,13.07
2018-09-14T12:10:15.719Z,11.07
2018-09-14T12:12:43.285Z,14.00
2018-09-14T12:15:10.851Z,10.40
2018-09-14T12:17:38.491Z,12.23
2018-09-14T12:20:06.058Z,13.07
2018-09-14T12:22:33.607Z,9.87
2018-09-14T12:25:01.226Z,11.03
2018-09-14T12:27:28.760Z,10.70
2018-09-14T12:29:56.738Z,10.30
2018-09-14T12:32:24.292Z,7.77
2018-09-14T12:34:51.842Z,8.32
2018-09-14T12:37:19.498Z,10.23
2018-09-14T12:39:47.771Z,9.93
2018-09-14T12:42:15.335Z,10.63
2018-09-14T12:44:43.436Z,10.37
2018-09-14T12:47:10.998Z,8.70
2018-09-14T12:49:38.552Z,8.90
2018-09-14T12:52:06.617Z,9.93
2018-09-14T12:54:34.179Z,11.10
2018-09-14T12:57:01.974Z,10.80
2018-09-14T12:59:30.833Z,10.05
2018-09-14T13:01:58.388Z,8.80
2018-09-14T13:04:25.978Z,8.53
2018-09-14T13:06:53.552Z,8.57
2018-09-14T13:09:21.877Z,8.30
2018-09-14T13:11:49.437Z,8.57
2018-09-14T13:14:17.076Z,8.43
2018-09-14T13:16:44.645Z,8.13
2018-09-14T13:19:12.205Z,8.13
2018-09-14T13:21:40.312Z,8.30
2018-09-14T13:24:07.900Z,7.37
2018-09-14T13:26:35.421Z,10.40
2018-09-14T13:29:03.812Z,8.17
2018-09-14T13:31:31.374Z,10.60
2018-09-14T13:33:58.935Z,10.77
2018-09-14T13:36:26.581Z,10.23
2018-09-14T13:38:54.139Z,8.57
2018-09-14T13:41:21.692Z,9.33
2018-09-14T13:43:50.001Z,11.83
2018-09-14T13:46:17.554Z,9.40
2018-09-14T13:48:45.430Z,7.93
2018-09-14T13:51:13.065Z,10.33
2018-09-14T13:53:40.619Z,7.53
2018-09-14T13:56:08.174Z,8.23
2018-09-14T13:58:35.780Z,9.07
2018-09-14T14:01:03.333Z,7.73
2018-09-14T14:03:30.888Z,7.13
2018-09-14T14:05:58.503Z,6.60
2018-09-14T14:08:26.054Z,6.80
2018-09-14T14:10:53.608Z,5.90
2018-09-14T14:13:21.218Z,7.97
2018-09-14T14:15:48.778Z,9.83
2018-09-14T14:18:16.325Z,7.10
2018-09-14T14:20:44.442Z,8.03
2018-09-14T14:23:12.016Z,7.83
2018-09-14T14:25:39.551Z,7.30
2018-09-14T14:28:07.631Z,9.63
2018-09-14T14:30:35.224Z,9.97
2018-09-14T14:33:02.760Z,8.47
2018-09-14T14:35:30.360Z,9.43
2018-09-14T14:37:57.920Z,9.90
2018-09-14T14:40:26.239Z,7.80
2018-09-14T14:42:53.848Z,7.83
2018-09-14T14:45:21.892Z,7.63
2018-09-14T14:47:49.462Z,6.40
2018-09-14T14:50:17.065Z,7.13
2018-09-14T14:52:45.389Z,11.97
2018-09-14T14:55:12.940Z,7.07
2018-09-14T14:57:41.441Z,8.17
2018-09-14T15:00:09.001Z,10.03
2018-09-14T15:02:36.559Z,8.53
2018-09-14T15:05:04.642Z,7.00
2018-09-14T15:07:32.237Z,7.33
2018-09-14T15:10:00.187Z,9.63
2018-09-14T15:12:28.549Z,5.07
2018-09-14T15:14:56.114Z,7.33
2018-09-14T15:17:23.673Z,5.93
2018-09-14T15:19:51.303Z,5.87
2018-09-14T15:22:18.864Z,7.17
2018-09-14T15:24:46.419Z,6.37
2018-09-14T15:27:14.032Z,6.37
2018-09-14T15:29:41.599Z,7.40
2018-09-14T15:32:09.152Z,8.27
2018-09-14T15:34:36.749Z,6.67
2018-09-14T15:37:05.073Z,4.20
2018-09-14T15:39:32.630Z,5.50
2018-09-14T15:42:00.274Z,5.20
2018-09-14T15:44:27.827Z,5.83
2018-09-14T15:46:55.389Z,4.50
2018-09-14T15:49:24.984Z,3.33
2018-09-14T15:51:52.512Z,4.13
2018-09-14T15:54:20.073Z,5.40
2018-09-14T15:56:48.229Z,5.93
2018-09-14T15:59:15.788Z,5.70
2018-09-14T16:01:43.346Z,8.40
2018-09-14T16:04:10.943Z,8.30
2018-09-14T16:06:38.496Z,4.33
2018-09-14T16:09:06.048Z,5.00
2018-09-14T16:11:33.691Z,5.70
2018-09-14T16:14:01.324Z,5.05
2018-09-14T16:16:28.821Z,5.47
2018-09-14T16:18:56.901Z,8.40
2018-09-14T16:21:24.452Z,6.47
2018-09-14T16:23:52.036Z,3.93
2018-09-14T16:26:19.673Z,3.83
2018-09-14T16:28:47.235Z,4.05
2018-09-14T16:31:15.084Z,2.67
2018-09-14T16:33:42.697Z,2.63
2018-09-14T16:36:10.256Z,3.27
2018-09-14T16:38:37.809Z,3.43
2018-09-14T16:41:06.344Z,3.00
2018-09-14T16:43:33.903Z,3.30
2018-09-14T16:46:01.456Z,2.13
2018-09-14T16:48:29.045Z,2.10
2018-09-14T16:50:56.605Z,3.58
2018-09-14T16:53:24.211Z,4.23
2018-09-14T16:55:51.772Z,2.77
2018-09-14T16:58:19.326Z,4.37
2018-09-14T17:00:47.740Z,2.00
2018-09-14T17:03:15.297Z,2.80
2018-09-14T17:05:43.626Z,1.77
2018-09-14T17:08:11.210Z,2.43
2018-09-14T17:10:38.763Z,1.47
2018-09-14T17:13:06.384Z,1.90
2018-09-14T17:15:33.941Z,1.73
2018-09-14T17:18:01.496Z,1.67
2018-09-14T17:20:29.105Z,1.53
2018-09-14T17:22:56.659Z,2.03
2018-09-14T17:25:24.216Z,4.22
2018-09-14T17:27:51.801Z,3.80
2018-09-14T17:30:19.362Z,3.93
2018-09-14T17:32:47.613Z,3.35
2018-09-14T17:35:15.172Z,3.43
2018-09-14T17:37:42.730Z,3.50
2018-09-14T17:40:11.041Z,4.12
2018-09-14T17:42:38.596Z,3.40
2018-09-14T17:45:06.157Z,2.97
2018-09-14T17:47:33.798Z,5.53
2018-09-14T17:50:01.391Z,3.43
2018-09-14T17:52:28.904Z,1.80
2018-09-14T17:54:56.543Z,2.53
2018-09-14T17:57:24.925Z,3.20
2018-09-14T17:59:52.427Z,2.73
2018-09-14T18:02:20.043Z,4.73
2018-09-14T18:04:48.372Z,2.43
2018-09-14T18:07:15.954Z,2.07
2018-09-14T18:09:43.584Z,4.63
2018-09-14T18:12:11.148Z,3.90
2018-09-14T18:14:38.700Z,4.00
2018-09-14T18:17:06.300Z,3.17
2018-09-14T18:19:33.854Z,5.03
2018-09-14T18:22:01.421Z,4.30
2018-09-14T18:24:29.040Z,4.53
2018-09-14T18:26:56.598Z,2.95
2018-09-14T18:29:24.146Z,5.17
2018-09-14T18:31:51.725Z,2.23
2018-09-14T18:34:19.283Z,3.47
2018-09-14T18:36:47.482Z,3.63
2018-09-14T18:39:15.034Z,4.23
2018-09-14T18:41:42.586Z,4.00
2018-09-14T18:44:10.210Z,10.60
2018-09-14T18:46:37.778Z,6.78
2018-09-14T18:49:06.089Z,6.53
2018-09-14T18:51:34.594Z,4.17
2018-09-14T18:54:02.188Z,4.43
2018-09-14T18:56:29.710Z,6.60
2018-09-14T18:58:57.321Z,6.40
2018-09-14T19:01:25.643Z,4.30
2018-09-14T19:03:53.203Z,8.57
2018-09-14T19:06:20.809Z,5.73
2018-09-14T19:08:48.379Z,13.93
2018-09-14T19:11:16.706Z,23.97
2018-09-14T19:13:44.337Z,11.57
2018-09-14T19:16:11.892Z,7.47
2018-09-14T19:18:40.208Z,7.07
2018-09-14T19:21:07.824Z,4.03
2018-09-14T19:23:36.462Z,5.20
2018-09-14T19:26:04.008Z,4.00
2018-09-14T19:28:32.094Z,3.80
2018-09-14T19:30:59.653Z,4.00
2018-09-14T19:33:27.198Z,2.90
2018-09-14T19:35:54.783Z,4.93
2018-09-14T19:38:22.419Z,6.23
2018-09-14T19:40:50.509Z,5.03
2018-09-14T19:43:18.073Z,5.10
2018-09-14T19:45:45.626Z,3.63
2018-09-14T19:48:13.249Z,8.03
2018-09-14T19:50:41.568Z,8.13
2018-09-14T19:53:09.131Z,3.83
2018-09-14T19:55:36.719Z,4.47
2018-09-14T19:58:04.267Z,3.47
2018-09-14T20:00:32.746Z,6.07
2018-09-14T20:03:00.303Z,5.23
2018-09-14T20:05:27.869Z,3.27
2018-09-14T20:07:55.740Z,5.53
2018-09-14T20:10:23.295Z,4.57
2018-09-14T20:12:50.852Z,4.53
2018-09-14T20:15:18.444Z,6.90
2018-09-14T20:17:46.068Z,3.93
2018-09-14T20:20:13.680Z,4.50
2018-09-14T20:22:41.248Z,4.20
2018-09-14T20:25:08.808Z,3.77
2018-09-14T20:27:37.174Z,4.03
2018-09-14T20:30:04.750Z,4.80
2018-09-14T20:32:33.081Z,4.82
2018-09-14T20:35:00.689Z,5.20
2018-09-14T20:37:28.246Z,4.10
2018-09-14T20:39:55.795Z,4.77
2018-09-14T20:42:23.386Z,9.23
2018-09-14T20:44:51.703Z,5.32
2018-09-14T20:47:19.312Z,7.20
2018-09-14T20:49:46.867Z,8.60
2018-09-14T20:52:15.372Z,6.13
2018-09-14T20:54:43.489Z,5.87
2018-09-14T20:57:11.045Z,4.60
2018-09-14T20:59:38.617Z,5.07
2018-09-14T21:02:06.933Z,4.63
2018-09-14T21:04:35.260Z,5.83
2018-09-14T21:07:02.811Z,3.97
2018-09-14T21:09:30.399Z,6.47
2018-09-14T21:11:57.955Z,6.80
2018-09-14T21:14:26.400Z,4.90
2018-09-14T21:16:53.952Z,4.47
2018-09-14T21:19:22.271Z,6.00
2018-09-14T21:21:49.885Z,5.20
2018-09-14T21:24:17.442Z,5.77
2018-09-14T21:26:45.760Z,5.47
2018-09-14T21:29:14.066Z,4.73
2018-09-14T21:31:41.576Z,5.83
2018-09-14T21:34:09.138Z,6.30
2018-09-14T21:36:37.487Z,5.40
2018-09-14T21:39:05.060Z,5.07
2018-09-14T21:41:33.432Z,4.82
2018-09-14T21:44:00.992Z,4.50
2018-09-14T21:46:28.552Z,8.53
2018-09-14T21:48:56.617Z,14.93
2018-09-14T21:51:24.170Z,14.93
2018-09-14T21:53:51.784Z,8.63
2018-09-14T21:56:19.818Z,11.33
2018-09-14T21:58:47.378Z,10.23
2018-09-14T22:01:14.935Z,13.53
2018-09-14T22:03:42.892Z,13.57
2018-09-14T22:06:10.451Z,9.50
2018-09-14T22:08:39.038Z,12.17
2018-09-14T22:11:06.615Z,9.07
2018-09-14T22:13:34.174Z,8.80
2018-09-14T22:16:02.650Z,11.73
2018-09-14T22:18:30.200Z,12.43
2018-09-14T22:20:57.754Z,13.30
2018-09-14T22:23:25.349Z,11.20
2018-09-14T22:25:52.904Z,9.57
2018-09-14T22:28:21.360Z,7.63
2018-09-14T22:30:48.966Z,7.47
2018-09-14T22:33:16.502Z,7.97
2018-09-14T22:35:44.451Z,7.68
2018-09-14T22:38:12.011Z,7.33
2018-09-14T22:40:39.564Z,6.17
2018-09-14T22:43:07.195Z,7.57
2018-09-14T22:45:35.566Z,5.40
2018-09-14T22:48:03.883Z,5.57
2018-09-14T22:50:31.464Z,8.80
2018-09-14T22:52:59.016Z,6.67
2018-09-14T22:55:26.612Z,5.13
2018-09-14T22:57:54.165Z,5.13
2018-09-14T23:00:21.713Z,6.50
2018-09-14T23:02:49.304Z,7.22
2018-09-14T23:05:16.876Z,5.33
2018-09-14T23:07:44.432Z,5.40
2018-09-14T23:10:12.789Z,5.30
2018-09-14T23:12:40.343Z,5.50
2018-09-14T23:15:07.892Z,7.07
2018-09-14T23:17:35.494Z,6.95
2018-09-14T23:20:03.819Z,6.43
2018-09-14T23:22:31.906Z,5.83
2018-09-14T23:24:59.458Z,5.60
2018-09-14T23:27:27.010Z,6.77
2018-09-14T23:29:54.599Z,5.47
2018-09-14T23:32:22.150Z,7.20
2018-09-14T23:34:49.705Z,5.27
2018-09-14T23:37:17.287Z,7.23
2018-09-14T23:39:44.839Z,4.43
2018-09-14T23:42:12.397Z,7.57
2018-09-14T23:44:39.980Z,6.10
2018-09-14T23:47:07.537Z,6.77
2018-09-14T23:49:35.133Z,5.90
2018-09-14T23:52:02.692Z,5.07
2018-09-14T23:54:31.016Z,8.07
2018-09-14T23:56:58.616Z,6.60
2018-09-14T23:59:26.175Z,6.83
